sensor_id;sensor_type;location;lat;lon;timestamp;temperature;humidity
19646;DHT22;9971;52.446;13.452;2022-12-20T00:00:22;13.80;99.90
19646;DHT22;9971;52.446;13.452;2022-12-20T00:05:25;13.80;99.90
19646;DHT22;9971;52.446;13.452;2022-12-20T00:10:27;13.90;99.90
19646;DHT22;9971;52.446;13.452;2022-12-20T00:15:30;13.90;99.90
19646;DHT22;9971;52.446;13.452;2022-12-20T00:20:32;14.00;99.90
19646;DHT22;9971;52.446;13.452;2022-12-20T00:25:36;14.00;99.90
19646;DHT22;9971;52.446;13.452;2022-12-20T00:30:38;14.00;99.90
19646;DHT22;9971;52.446;13.452;2022-12-20T00:35:41;14.00;99.90
19646;DHT22;9971;52.446;13.452;2022-12-20T00:40:44;14.10;99.90
19646;DHT22;9971;52.446;13.452;2022-12-20T00:45:46;14.10;99.90
19646;DHT22;9971;52.446;13.452;2022-12-20T00:50:48;14.10;99.90
19646;DHT22;9971;52.446;13.452;2022-12-20T00:55:51;14.20;99.90
19646;DHT22;9971;52.446;13.452;2022-12-20T01:00:53;14.20;99.90
19646;DHT22;9971;52.446;13.452;2022-12-20T01:05:57;14.20;99.90
19646;DHT22;9971;52.446;13.452;2022-12-20T01:11:07;14.30;99.90
19646;DHT22;9971;52.446;13.452;2022-12-20T01:16:11;14.30;99.90
19646;DHT22;9971;52.446;13.452;2022-12-20T01:21:12;14.30;99.90
19646;DHT22;9971;52.446;13.452;2022-12-20T01:26:14;14.30;99.90
19646;DHT22;9971;52.446;13.452;2022-12-20T01:31:16;14.30;99.90
19646;DHT22;9971;52.446;13.452;2022-12-20T01:36:21;14.40;99.90
19646;DHT22;9971;52.446;13.452;2022-12-20T01:41:21;14.40;99.90
19646;DHT22;9971;52.446;13.452;2022-12-20T01:46:25;14.40;99.90
19646;DHT22;9971;52.446;13.452;2022-12-20T01:51:25;14.40;99.90
19646;DHT22;9971;52.446;13.452;2022-12-20T01:56:28;14.40;99.90
19646;DHT22;9971;52.446;13.452;2022-12-20T02:01:30;14.40;99.90
19646;DHT22;9971;52.446;13.452;2022-12-20T02:06:33;14.40;99.90
19646;DHT22;9971;52.446;13.452;2022-12-20T02:17:07;14.40;99.90
19646;DHT22;9971;52.446;13.452;2022-12-20T02:22:14;14.40;99.90
19646;DHT22;9971;52.446;13.452;2022-12-20T02:27:30;14.40;99.90
19646;DHT22;9971;52.446;13.452;2022-12-20T02:32:37;14.40;99.90
19646;DHT22;9971;52.446;13.452;2022-12-20T02:37:45;14.30;99.90
19646;DHT22;9971;52.446;13.452;2022-12-20T02:42:39;14.30;99.90
19646;DHT22;9971;52.446;13.452;2022-12-20T02:47:49;14.30;99.90
19646;DHT22;9971;52.446;13.452;2022-12-20T02:52:53;14.30;99.90
19646;DHT22;9971;52.446;13.452;2022-12-20T02:57:57;14.30;99.90
19646;DHT22;9971;52.446;13.452;2022-12-20T03:02:57;14.30;99.90
19646;DHT22;9971;52.446;13.452;2022-12-20T03:08:05;14.30;99.90
19646;DHT22;9971;52.446;13.452;2022-12-20T03:13:07;14.30;99.90
19646;DHT22;9971;52.446;13.452;2022-12-20T03:18:09;14.30;99.90
19646;DHT22;9971;52.446;13.452;2022-12-20T03:23:11;14.30;99.90
19646;DHT22;9971;52.446;13.452;2022-12-20T03:28:14;14.30;99.90
19646;DHT22;9971;52.446;13.452;2022-12-20T03:33:16;14.30;99.90
19646;DHT22;9971;52.446;13.452;2022-12-20T03:38:19;14.30;99.90
19646;DHT22;9971;52.446;13.452;2022-12-20T03:43:21;14.30;99.90
19646;DHT22;9971;52.446;13.452;2022-12-20T03:48:24;14.30;99.90
19646;DHT22;9971;52.446;13.452;2022-12-20T03:53:26;14.30;99.90
19646;DHT22;9971;52.446;13.452;2022-12-20T03:58:29;14.30;99.90
19646;DHT22;9971;52.446;13.452;2022-12-20T04:03:32;14.30;99.90
19646;DHT22;9971;52.446;13.452;2022-12-20T04:08:34;14.30;99.90
19646;DHT22;9971;52.446;13.452;2022-12-20T04:13:36;14.40;99.90
19646;DHT22;9971;52.446;13.452;2022-12-20T04:18:39;14.40;99.90
19646;DHT22;9971;52.446;13.452;2022-12-20T04:23:41;14.40;99.90
19646;DHT22;9971;52.446;13.452;2022-12-20T04:28:43;14.40;99.90
19646;DHT22;9971;52.446;13.452;2022-12-20T04:33:46;14.40;99.90
19646;DHT22;9971;52.446;13.452;2022-12-20T04:38:48;14.30;99.90
19646;DHT22;9971;52.446;13.452;2022-12-20T04:43:51;14.40;99.90
19646;DHT22;9971;52.446;13.452;2022-12-20T04:48:52;14.40;99.90
19646;DHT22;9971;52.446;13.452;2022-12-20T04:53:54;14.40;99.90
19646;DHT22;9971;52.446;13.452;2022-12-20T04:58:57;14.40;99.90
19646;DHT22;9971;52.446;13.452;2022-12-20T05:03:58;14.40;99.90
19646;DHT22;9971;52.446;13.452;2022-12-20T05:09:01;14.40;99.90
19646;DHT22;9971;52.446;13.452;2022-12-20T05:14:03;14.40;99.90
19646;DHT22;9971;52.446;13.452;2022-12-20T05:19:05;14.40;99.90
19646;DHT22;9971;52.446;13.452;2022-12-20T05:24:08;14.40;99.90
19646;DHT22;9971;52.446;13.452;2022-12-20T05:29:15;14.40;99.90
19646;DHT22;9971;52.446;13.452;2022-12-20T05:34:18;14.40;99.90
19646;DHT22;9971;52.446;13.452;2022-12-20T05:39:20;14.50;99.90
19646;DHT22;9971;52.446;13.452;2022-12-20T05:44:23;14.50;99.90
19646;DHT22;9971;52.446;13.452;2022-12-20T05:49:25;14.50;99.90
19646;DHT22;9971;52.446;13.452;2022-12-20T05:54:28;14.60;99.90
19646;DHT22;9971;52.446;13.452;2022-12-20T05:59:30;14.60;99.90
19646;DHT22;9971;52.446;13.452;2022-12-20T06:04:33;14.60;99.90
19646;DHT22;9971;52.446;13.452;2022-12-20T06:09:35;14.70;99.90
19646;DHT22;9971;52.446;13.452;2022-12-20T06:14:38;14.70;99.90
19646;DHT22;9971;52.446;13.452;2022-12-20T06:19:40;14.70;99.90
19646;DHT22;9971;52.446;13.452;2022-12-20T06:24:43;14.70;99.90
19646;DHT22;9971;52.446;13.452;2022-12-20T06:29:45;14.80;99.90
19646;DHT22;9971;52.446;13.452;2022-12-20T06:34:48;11.10;99.90
19646;DHT22;9971;52.446;13.452;2022-12-20T06:39:50;8.50;99.90
19646;DHT22;9971;52.446;13.452;2022-12-20T06:44:52;8.20;99.90
19646;DHT22;9971;52.446;13.452;2022-12-20T06:49:55;8.30;99.90
19646;DHT22;9971;52.446;13.452;2022-12-20T06:54:57;8.30;99.90
19646;DHT22;9971;52.446;13.452;2022-12-20T07:00:00;8.20;99.90
19646;DHT22;9971;52.446;13.452;2022-12-20T07:05:02;8.20;99.90
19646;DHT22;9971;52.446;13.452;2022-12-20T07:10:06;8.20;99.90
19646;DHT22;9971;52.446;13.452;2022-12-20T07:15:09;8.20;99.90
19646;DHT22;9971;52.446;13.452;2022-12-20T07:20:11;8.20;99.90
19646;DHT22;9971;52.446;13.452;2022-12-20T07:25:14;8.20;99.90
19646;DHT22;9971;52.446;13.452;2022-12-20T07:30:17;8.30;99.90
19646;DHT22;9971;52.446;13.452;2022-12-20T07:35:18;8.20;99.90
19646;DHT22;9971;52.446;13.452;2022-12-20T08:05:21;8.20;99.90
19646;DHT22;9971;52.446;13.452;2022-12-20T08:10:23;10.80;99.90
19646;DHT22;9971;52.446;13.452;2022-12-20T08:15:25;9.60;99.90
19646;DHT22;9971;52.446;13.452;2022-12-20T08:20:27;9.00;99.90
19646;DHT22;9971;52.446;13.452;2022-12-20T08:25:30;8.70;99.90
19646;DHT22;9971;52.446;13.452;2022-12-20T08:30:32;8.60;99.90
19646;DHT22;9971;52.446;13.452;2022-12-20T08:35:34;8.50;99.90
19646;DHT22;9971;52.446;13.452;2022-12-20T08:40:37;8.50;99.90
19646;DHT22;9971;52.446;13.452;2022-12-20T08:45:39;8.40;99.90
19646;DHT22;9971;52.446;13.452;2022-12-20T08:50:42;8.50;99.90
19646;DHT22;9971;52.446;13.452;2022-12-20T08:55:44;8.50;99.90
19646;DHT22;9971;52.446;13.452;2022-12-20T09:00:47;8.50;99.90
19646;DHT22;9971;52.446;13.452;2022-12-20T09:05:49;8.60;99.90
19646;DHT22;9971;52.446;13.452;2022-12-20T09:10:52;8.60;99.90
19646;DHT22;9971;52.446;13.452;2022-12-20T09:15:54;8.60;99.90
19646;DHT22;9971;52.446;13.452;2022-12-20T09:20:59;8.70;99.90
19646;DHT22;9971;52.446;13.452;2022-12-20T09:26:01;8.80;99.90
19646;DHT22;9971;52.446;13.452;2022-12-20T09:31:03;8.80;99.90
19646;DHT22;9971;52.446;13.452;2022-12-20T10:01:15;8.90;99.90
19646;DHT22;9971;52.446;13.452;2022-12-20T10:06:19;11.40;99.90
19646;DHT22;9971;52.446;13.452;2022-12-20T10:11:47;10.50;99.90
19646;DHT22;9971;52.446;13.452;2022-12-20T10:16:45;10.20;99.90
19646;DHT22;9971;52.446;13.452;2022-12-20T10:22:01;10.00;99.90
19646;DHT22;9971;52.446;13.452;2022-12-20T10:27:19;10.00;99.90
19646;DHT22;9971;52.446;13.452;2022-12-20T10:32:21;9.90;99.90
19646;DHT22;9971;52.446;13.452;2022-12-20T10:37:23;9.90;99.90
19646;DHT22;9971;52.446;13.452;2022-12-20T10:42:29;10.00;99.90
19646;DHT22;9971;52.446;13.452;2022-12-20T10:47:35;10.00;99.90
19646;DHT22;9971;52.446;13.452;2022-12-20T10:52:35;10.10;99.90
19646;DHT22;9971;52.446;13.452;2022-12-20T10:57:37;10.20;99.90
19646;DHT22;9971;52.446;13.452;2022-12-20T11:02:39;10.40;99.90
19646;DHT22;9971;52.446;13.452;2022-12-20T11:07:58;10.40;99.90
19646;DHT22;9971;52.446;13.452;2022-12-20T11:12:59;10.40;99.90
19646;DHT22;9971;52.446;13.452;2022-12-20T11:18:09;10.40;99.90
19646;DHT22;9971;52.446;13.452;2022-12-20T11:23:20;10.40;99.90
19646;DHT22;9971;52.446;13.452;2022-12-20T11:28:32;10.50;99.90
19646;DHT22;9971;52.446;13.452;2022-12-20T11:33:37;10.50;99.90
19646;DHT22;9971;52.446;13.452;2022-12-20T12:03:36;10.60;99.90
19646;DHT22;9971;52.446;13.452;2022-12-20T12:13:54;11.90;99.90
19646;DHT22;9971;52.446;13.452;2022-12-20T12:18:56;11.40;99.90
19646;DHT22;9971;52.446;13.452;2022-12-20T12:24:04;11.10;99.90
19646;DHT22;9971;52.446;13.452;2022-12-20T12:29:13;10.90;99.90
19646;DHT22;9971;52.446;13.452;2022-12-20T12:34:57;10.80;99.90
19646;DHT22;9971;52.446;13.452;2022-12-20T12:39:53;10.70;99.90
19646;DHT22;9971;52.446;13.452;2022-12-20T12:44:54;10.70;99.90
19646;DHT22;9971;52.446;13.452;2022-12-20T12:49:55;10.70;99.90
19646;DHT22;9971;52.446;13.452;2022-12-20T13:19:57;10.70;99.90
19646;DHT22;9971;52.446;13.452;2022-12-20T13:25:01;12.80;99.90
19646;DHT22;9971;52.446;13.452;2022-12-20T13:35:27;11.20;99.90
19646;DHT22;9971;52.446;13.452;2022-12-20T13:40:38;10.90;99.90
19646;DHT22;9971;52.446;13.452;2022-12-20T13:45:42;10.80;99.90
19646;DHT22;9971;52.446;13.452;2022-12-20T13:50:49;10.70;99.90
19646;DHT22;9971;52.446;13.452;2022-12-20T13:55:51;10.60;99.90
19646;DHT22;9971;52.446;13.452;2022-12-20T14:00:53;10.60;99.90
19646;DHT22;9971;52.446;13.452;2022-12-20T14:05:59;10.50;99.90
19646;DHT22;9971;52.446;13.452;2022-12-20T14:11:07;10.40;99.90
19646;DHT22;9971;52.446;13.452;2022-12-20T14:16:12;10.40;99.90
19646;DHT22;9971;52.446;13.452;2022-12-20T14:21:11;10.40;99.90
19646;DHT22;9971;52.446;13.452;2022-12-20T14:26:15;10.30;99.90
19646;DHT22;9971;52.446;13.452;2022-12-20T14:31:28;10.30;99.90
19646;DHT22;9971;52.446;13.452;2022-12-20T14:36:30;10.20;99.90
19646;DHT22;9971;52.446;13.452;2022-12-20T14:41:34;10.20;99.90
19646;DHT22;9971;52.446;13.452;2022-12-20T14:46:34;10.20;99.90
19646;DHT22;9971;52.446;13.452;2022-12-20T14:51:37;10.10;99.90
19646;DHT22;9971;52.446;13.452;2022-12-20T14:56:43;10.00;99.90
19646;DHT22;9971;52.446;13.452;2022-12-20T15:26:41;10.00;99.90
19646;DHT22;9971;52.446;13.452;2022-12-20T15:56:43;12.30;99.90
19646;DHT22;9971;52.446;13.452;2022-12-20T16:01:46;13.60;99.90
19646;DHT22;9971;52.446;13.452;2022-12-20T16:06:48;11.70;99.90
19646;DHT22;9971;52.446;13.452;2022-12-20T16:11:50;10.60;99.90
19646;DHT22;9971;52.446;13.452;2022-12-20T16:16:52;10.10;99.90
19646;DHT22;9971;52.446;13.452;2022-12-20T16:21:55;9.70;99.90
19646;DHT22;9971;52.446;13.452;2022-12-20T16:26:57;9.60;99.90
19646;DHT22;9971;52.446;13.452;2022-12-20T16:57:00;9.50;99.90
19646;DHT22;9971;52.446;13.452;2022-12-20T17:02:02;12.00;99.90
19646;DHT22;9971;52.446;13.452;2022-12-20T17:07:05;10.60;99.90
19646;DHT22;9971;52.446;13.452;2022-12-20T17:12:15;9.80;99.90
19646;DHT22;9971;52.446;13.452;2022-12-20T17:17:17;9.40;99.90
19646;DHT22;9971;52.446;13.452;2022-12-20T17:22:19;9.10;99.90
19646;DHT22;9971;52.446;13.452;2022-12-20T17:27:22;8.90;99.90
19646;DHT22;9971;52.446;13.452;2022-12-20T17:32:24;8.80;99.90
19646;DHT22;9971;52.446;13.452;2022-12-20T17:37:26;8.80;99.90
19646;DHT22;9971;52.446;13.452;2022-12-20T17:42:29;8.80;99.90
19646;DHT22;9971;52.446;13.452;2022-12-20T17:47:31;8.80;99.90
19646;DHT22;9971;52.446;13.452;2022-12-20T17:52:34;8.80;99.90
19646;DHT22;9971;52.446;13.452;2022-12-20T17:57:36;8.70;99.90
19646;DHT22;9971;52.446;13.452;2022-12-20T18:02:38;8.70;99.90
19646;DHT22;9971;52.446;13.452;2022-12-20T18:07:42;8.70;99.90
19646;DHT22;9971;52.446;13.452;2022-12-20T18:12:43;8.70;99.90
19646;DHT22;9971;52.446;13.452;2022-12-20T18:17:45;8.70;99.90
19646;DHT22;9971;52.446;13.452;2022-12-20T18:22:47;8.70;99.90
19646;DHT22;9971;52.446;13.452;2022-12-20T18:27:50;8.80;99.90
19646;DHT22;9971;52.446;13.452;2022-12-20T18:32:53;8.90;99.90
19646;DHT22;9971;52.446;13.452;2022-12-20T18:37:57;8.90;99.90
19646;DHT22;9971;52.446;13.452;2022-12-20T18:42:59;9.00;99.90
19646;DHT22;9971;52.446;13.452;2022-12-20T18:48:01;9.00;99.90
19646;DHT22;9971;52.446;13.452;2022-12-20T18:53:05;9.00;99.90
19646;DHT22;9971;52.446;13.452;2022-12-20T18:58:07;9.10;99.90
19646;DHT22;9971;52.446;13.452;2022-12-20T19:03:10;9.20;99.90
19646;DHT22;9971;52.446;13.452;2022-12-20T19:08:12;9.30;99.90
19646;DHT22;9971;52.446;13.452;2022-12-20T19:13:14;9.40;99.90
19646;DHT22;9971;52.446;13.452;2022-12-20T19:18:17;9.50;99.90
19646;DHT22;9971;52.446;13.452;2022-12-20T19:23:19;9.50;99.90
19646;DHT22;9971;52.446;13.452;2022-12-20T19:28:22;9.50;99.90
19646;DHT22;9971;52.446;13.452;2022-12-20T19:33:24;9.50;99.90
19646;DHT22;9971;52.446;13.452;2022-12-20T19:38:27;9.50;99.90
19646;DHT22;9971;52.446;13.452;2022-12-20T19:43:29;9.40;99.90
19646;DHT22;9971;52.446;13.452;2022-12-20T19:48:31;9.40;99.90
19646;DHT22;9971;52.446;13.452;2022-12-20T19:53:34;9.20;99.90
19646;DHT22;9971;52.446;13.452;2022-12-20T19:58:36;9.20;99.90
19646;DHT22;9971;52.446;13.452;2022-12-20T20:03:38;9.10;99.90
19646;DHT22;9971;52.446;13.452;2022-12-20T20:08:40;9.10;99.90
19646;DHT22;9971;52.446;13.452;2022-12-20T20:13:43;9.10;99.90
19646;DHT22;9971;52.446;13.452;2022-12-20T20:18:45;9.10;99.90
19646;DHT22;9971;52.446;13.452;2022-12-20T20:23:47;9.10;99.90
19646;DHT22;9971;52.446;13.452;2022-12-20T20:28:49;9.00;99.90
19646;DHT22;9971;52.446;13.452;2022-12-20T20:33:51;9.00;99.90
19646;DHT22;9971;52.446;13.452;2022-12-20T20:38:54;9.00;99.90
19646;DHT22;9971;52.446;13.452;2022-12-20T20:43:56;9.00;99.90
19646;DHT22;9971;52.446;13.452;2022-12-20T20:48:59;9.00;99.90
19646;DHT22;9971;52.446;13.452;2022-12-20T20:54:01;9.00;99.90
19646;DHT22;9971;52.446;13.452;2022-12-20T20:59:04;9.00;99.90
19646;DHT22;9971;52.446;13.452;2022-12-20T21:04:06;8.90;99.90
19646;DHT22;9971;52.446;13.452;2022-12-20T21:09:08;8.90;99.90
19646;DHT22;9971;52.446;13.452;2022-12-20T21:14:10;8.80;99.90
19646;DHT22;9971;52.446;13.452;2022-12-20T21:19:12;8.80;99.90
19646;DHT22;9971;52.446;13.452;2022-12-20T21:24:15;8.80;99.90
19646;DHT22;9971;52.446;13.452;2022-12-20T21:29:17;8.80;99.90
19646;DHT22;9971;52.446;13.452;2022-12-20T21:34:20;8.80;99.90
19646;DHT22;9971;52.446;13.452;2022-12-20T21:39:22;8.70;99.90
19646;DHT22;9971;52.446;13.452;2022-12-20T21:44:25;8.70;99.90
19646;DHT22;9971;52.446;13.452;2022-12-20T21:49:27;8.80;99.90
19646;DHT22;9971;52.446;13.452;2022-12-20T21:54:30;8.80;99.90
19646;DHT22;9971;52.446;13.452;2022-12-20T21:59:32;8.80;99.90
19646;DHT22;9971;52.446;13.452;2022-12-20T22:04:35;8.70;99.90
19646;DHT22;9971;52.446;13.452;2022-12-20T22:09:37;8.70;99.90
19646;DHT22;9971;52.446;13.452;2022-12-20T22:14:40;8.70;99.90
19646;DHT22;9971;52.446;13.452;2022-12-20T22:19:42;8.70;99.90
19646;DHT22;9971;52.446;13.452;2022-12-20T22:24:45;8.70;99.90
19646;DHT22;9971;52.446;13.452;2022-12-20T22:29:47;8.70;99.90
19646;DHT22;9971;52.446;13.452;2022-12-20T22:34:49;8.70;99.90
19646;DHT22;9971;52.446;13.452;2022-12-20T22:39:52;8.60;99.90
19646;DHT22;9971;52.446;13.452;2022-12-20T22:44:54;8.60;99.90
19646;DHT22;9971;52.446;13.452;2022-12-20T22:49:57;8.60;99.90
19646;DHT22;9971;52.446;13.452;2022-12-20T22:54:59;8.60;99.90
19646;DHT22;9971;52.446;13.452;2022-12-20T23:00:01;8.60;99.90
19646;DHT22;9971;52.446;13.452;2022-12-20T23:05:03;8.60;99.90
19646;DHT22;9971;52.446;13.452;2022-12-20T23:10:06;8.60;99.90
19646;DHT22;9971;52.446;13.452;2022-12-20T23:15:10;8.50;99.90
19646;DHT22;9971;52.446;13.452;2022-12-20T23:20:17;8.50;99.90
19646;DHT22;9971;52.446;13.452;2022-12-20T23:25:25;8.50;99.90
19646;DHT22;9971;52.446;13.452;2022-12-20T23:30:27;8.50;99.90
19646;DHT22;9971;52.446;13.452;2022-12-20T23:35:30;8.40;99.90
19646;DHT22;9971;52.446;13.452;2022-12-20T23:40:31;8.40;99.90
19646;DHT22;9971;52.446;13.452;2022-12-20T23:45:34;8.30;99.90
19646;DHT22;9971;52.446;13.452;2022-12-20T23:50:36;8.30;99.90
19646;DHT22;9971;52.446;13.452;2022-12-20T23:55:39;8.30;99.90
